createdAt,value
2019-02-23T00:04:30.007Z,3.30
2019-02-23T00:11:27.415Z,3.40
2019-02-23T00:18:24.186Z,3.30
2019-02-23T00:25:21.334Z,4.10
2019-02-23T00:32:18.663Z,4.10
2019-02-23T00:39:03.991Z,3.90
2019-02-23T00:46:09.826Z,3.60
2019-02-23T00:53:06.898Z,3.50
2019-02-23T01:00:03.545Z,4.00
2019-02-23T01:07:01.634Z,4.40
2019-02-23T01:13:58.687Z,4.20
2019-02-23T01:20:55.603Z,4.00
2019-02-23T01:27:52.901Z,3.90
2019-02-23T01:34:48.647Z,3.50
2019-02-23T01:41:53.172Z,3.20
2019-02-23T01:48:50.483Z,2.90
2019-02-23T01:55:47.867Z,2.60
2019-02-23T02:02:44.903Z,2.50
2019-02-23T02:09:42.459Z,2.50
2019-02-23T02:16:39.951Z,2.60
2019-02-23T02:23:36.717Z,2.70
2019-02-23T02:30:33.956Z,2.90
2019-02-23T02:37:31.698Z,2.70
2019-02-23T02:44:29.241Z,2.70
2019-02-23T02:51:26.854Z,2.40
2019-02-23T02:58:24.019Z,2.40
2019-02-23T03:05:21.092Z,2.40
2019-02-23T03:12:17.820Z,2.20
2019-02-23T03:19:15.669Z,2.20
2019-02-23T03:26:12.839Z,2.10
2019-02-23T03:33:10.947Z,2.00
2019-02-23T03:40:08.641Z,2.30
2019-02-23T03:47:05.449Z,2.50
2019-02-23T03:54:02.378Z,2.30
2019-02-23T04:00:59.911Z,2.30
2019-02-23T04:07:57.051Z,2.40
2019-02-23T04:14:53.704Z,2.30
2019-02-23T04:21:50.888Z,2.60
2019-02-23T04:28:47.920Z,2.40
2019-02-23T04:35:46.592Z,2.30
2019-02-23T04:42:44.313Z,2.10
2019-02-23T04:49:41.324Z,2.00
2019-02-23T04:56:38.351Z,2.10
2019-02-23T05:03:35.785Z,2.40
2019-02-23T05:10:33.204Z,2.30
2019-02-23T05:17:30.809Z,2.00
2019-02-23T05:24:27.516Z,1.80
2019-02-23T05:31:25.003Z,1.70
2019-02-23T05:38:22.436Z,1.60
2019-02-23T05:45:19.331Z,1.70
2019-02-23T05:52:16.844Z,1.80
2019-02-23T05:59:14.053Z,1.70
2019-02-23T06:06:11.372Z,1.90
2019-02-23T06:13:08.340Z,1.90
2019-02-23T06:20:06.183Z,1.80
2019-02-23T06:27:03.668Z,1.80
2019-02-23T06:34:01.537Z,1.50
2019-02-23T06:40:58.472Z,1.50
2019-02-23T06:47:55.826Z,1.60
2019-02-23T06:54:53.392Z,1.60
2019-02-23T07:01:50.043Z,1.70
2019-02-23T07:08:50.519Z,1.80
2019-02-23T07:15:47.258Z,2.00
2019-02-23T07:22:44.661Z,2.20
2019-02-23T07:29:41.816Z,2.30
2019-02-23T07:36:39.504Z,3.30
2019-02-23T07:43:37.500Z,6.40
2019-02-23T07:50:34.906Z,7.70
2019-02-23T07:57:31.984Z,13.40
2019-02-23T08:04:29.403Z,17.80
2019-02-23T08:11:26.183Z,19.00
2019-02-23T08:18:23.410Z,18.90
2019-02-23T08:25:20.899Z,19.70
2019-02-23T08:32:17.963Z,19.40
2019-02-23T08:39:14.631Z,21.20
2019-02-23T08:46:12.232Z,20.40
2019-02-23T08:53:09.716Z,20.40
2019-02-23T09:00:06.794Z,20.90
2019-02-23T09:07:05.456Z,21.80
2019-02-23T09:14:02.604Z,18.10
2019-02-23T09:20:59.388Z,18.00
2019-02-23T09:27:56.758Z,20.00
2019-02-23T09:34:54.388Z,20.50
2019-02-23T09:41:51.347Z,21.20
2019-02-23T09:48:48.467Z,19.40
2019-02-23T09:55:45.963Z,19.80
2019-02-23T10:02:42.931Z,18.90
2019-02-23T10:09:39.890Z,18.70
2019-02-23T10:16:36.664Z,18.20
2019-02-23T10:23:34.165Z,17.00
2019-02-23T10:30:31.879Z,17.60
2019-02-23T10:37:29.351Z,17.70
2019-02-23T10:44:26.015Z,18.20
2019-02-23T10:51:22.659Z,17.10
2019-02-23T10:58:20.228Z,16.60
2019-02-23T11:05:18.421Z,13.50
2019-02-23T11:12:15.819Z,11.80
2019-02-23T11:19:12.792Z,10.50
2019-02-23T11:26:09.942Z,10.20
2019-02-23T11:32:54.806Z,10.20
2019-02-23T11:39:39.829Z,10.20
2019-02-23T11:46:37.905Z,10.20
2019-02-23T11:53:35.241Z,10.30
2019-02-23T12:00:32.015Z,10.60
2019-02-23T12:07:29.288Z,10.30
2019-02-23T12:14:26.383Z,10.40
2019-02-23T12:21:23.820Z,10.60
2019-02-23T12:28:21.255Z,10.60
2019-02-23T12:35:18.433Z,10.90
2019-02-23T12:42:15.443Z,11.10
2019-02-23T12:49:13.006Z,11.30
2019-02-23T12:56:10.239Z,11.20
2019-02-23T13:03:06.916Z,11.50
2019-02-23T13:10:04.006Z,11.40
2019-02-23T13:17:01.316Z,11.40
2019-02-23T13:23:58.808Z,11.30
2019-02-23T13:30:56.322Z,11.10
2019-02-23T13:37:53.206Z,11.30
2019-02-23T13:44:50.399Z,11.50
2019-02-23T13:51:48.662Z,11.70
2019-02-23T13:58:47.688Z,11.60
2019-02-23T14:05:44.303Z,11.60
2019-02-23T14:12:34.895Z,11.40
2019-02-23T14:19:34.783Z,11.50
2019-02-23T14:26:34.332Z,11.90
2019-02-23T14:33:54.015Z,12.00
2019-02-23T14:41:17.569Z,11.80
2019-02-23T14:48:14.481Z,11.70
2019-02-23T14:55:12.222Z,11.80
2019-02-23T15:02:08.999Z,12.10
2019-02-23T15:09:05.736Z,12.20
2019-02-23T15:16:04.536Z,11.70
2019-02-23T15:23:01.463Z,11.60
2019-02-23T15:29:58.967Z,11.60
2019-02-23T15:37:00.690Z,11.30
2019-02-23T15:43:54.705Z,11.10
2019-02-23T15:50:52.155Z,10.80
2019-02-23T15:57:49.770Z,10.40
2019-02-23T16:04:47.197Z,10.00
2019-02-23T16:11:32.501Z,9.70
2019-02-23T16:18:17.603Z,9.40
2019-02-23T16:25:15.231Z,9.10
2019-02-23T16:32:13.738Z,8.80
2019-02-23T16:39:11.298Z,8.50
2019-02-23T16:46:09.770Z,8.30
2019-02-23T16:52:56.102Z,8.10
2019-02-23T16:59:44.491Z,8.00
2019-02-23T17:06:41.212Z,7.80
2019-02-23T17:13:37.897Z,7.70
2019-02-23T17:20:35.315Z,7.50
2019-02-23T17:27:36.258Z,7.30
2019-02-23T17:34:32.015Z,7.00
2019-02-23T17:41:28.707Z,6.90
2019-02-23T17:48:26.207Z,6.70
2019-02-23T17:55:23.329Z,6.60
2019-02-23T18:02:20.760Z,6.40
2019-02-23T18:09:17.468Z,6.30
2019-02-23T18:16:14.239Z,6.20
2019-02-23T18:23:11.707Z,6.00
2019-02-23T18:30:14.080Z,5.90
2019-02-23T18:37:10.727Z,5.80
2019-02-23T18:44:07.499Z,5.70
2019-02-23T18:51:06.201Z,5.60
2019-02-23T18:58:03.537Z,5.70
2019-02-23T19:04:48.479Z,5.70
2019-02-23T19:11:33.387Z,5.70
2019-02-23T19:18:30.371Z,5.50
2019-02-23T19:25:27.403Z,5.40
2019-02-23T19:32:25.135Z,5.10
2019-02-23T19:39:22.363Z,4.80
2019-02-23T19:46:19.715Z,4.70
2019-02-23T19:53:17.315Z,4.60
2019-02-23T20:00:15.792Z,4.30
2019-02-23T20:07:13.259Z,4.00
2019-02-23T20:13:58.183Z,3.90
2019-02-23T20:20:43.051Z,3.70
2019-02-23T20:27:28.030Z,3.40
2019-02-23T20:34:33.292Z,3.20
2019-02-23T20:41:30.421Z,3.00
2019-02-23T20:48:16.352Z,2.90
2019-02-23T20:55:01.461Z,2.90
2019-02-23T21:02:00.107Z,3.00
2019-02-23T21:08:57.555Z,3.10
2019-02-23T21:15:54.531Z,3.10
2019-02-23T21:22:52.033Z,3.30
2019-02-23T21:29:50.480Z,3.40
2019-02-23T21:36:48.041Z,3.60
2019-02-23T21:43:32.997Z,3.60
2019-02-23T21:50:18.076Z,3.60
2019-02-23T21:57:03.071Z,3.50
2019-02-23T22:03:48.031Z,3.40
2019-02-23T22:10:45.519Z,3.10
2019-02-23T22:17:42.512Z,3.00
2019-02-23T22:24:39.103Z,2.90
2019-02-23T22:31:36.253Z,3.10
2019-02-23T22:38:21.297Z,3.10
2019-02-23T22:45:41.711Z,3.00
2019-02-23T22:52:30.647Z,2.90
2019-02-23T22:59:15.881Z,2.90
2019-02-23T23:06:01.896Z,2.70
2019-02-23T23:12:46.795Z,2.50
2019-02-23T23:19:33.564Z,2.40
2019-02-23T23:26:18.987Z,2.20
2019-02-23T23:33:05.374Z,2.20
2019-02-23T23:40:03.428Z,2.30
2019-02-23T23:46:49.687Z,2.30
2019-02-23T23:53:49.616Z,2.40
